Time;durP1;ratioP1;P1;durP2;ratioP2;P2;SDS_P1;SDS_P2;PMS_P1;PMS_P2;Temp;Humidity;BMP_temperature;BMP_pressure;BME280_temperature;BME280_humidity;BME280_pressure;Samples;Min_cycle;Max_cycle;Signal;HPM_P1;HPM_P2
2023/08/06 00:02:20;;;;;;;3.53;3.27;;;22.20;65.60;;;;;;5049996;28;20717;-44
2023/08/06 00:04:46;;;;;;;4.53;3.40;;;22.10;66.60;;;;;;5053288;28;20558;-45
2023/08/06 00:07:11;;;;;;;3.90;3.60;;;22.10;66.90;;;;;;5053361;28;20620;-44
2023/08/06 00:09:37;;;;;;;3.90;3.47;;;22.10;66.40;;;;;;5052615;28;20282;-44
2023/08/06 00:12:03;;;;;;;3.83;3.53;;;22.00;66.60;;;;;;5047434;28;20254;-46
2023/08/06 00:14:28;;;;;;;4.77;4.37;;;22.10;67.40;;;;;;5048776;28;20197;-45
2023/08/06 00:16:54;;;;;;;4.20;3.87;;;22.20;66.50;;;;;;5039490;28;20729;-44
2023/08/06 00:19:19;;;;;;;3.90;3.60;;;22.20;66.50;;;;;;5055365;28;20556;-46
2023/08/06 00:21:45;;;;;;;3.97;3.60;;;22.30;66.00;;;;;;5050926;28;20811;-45
2023/08/06 00:24:10;;;;;;;3.73;3.43;;;22.30;65.70;;;;;;5055094;28;20279;-45
2023/08/06 00:26:36;;;;;;;3.87;3.40;;;22.40;65.70;;;;;;5053343;28;20193;-44
2023/08/06 00:29:02;;;;;;;3.30;3.00;;;22.40;65.20;;;;;;5048125;28;20193;-44
2023/08/06 00:31:27;;;;;;;5.60;3.77;;;22.30;66.50;;;;;;5052603;28;20203;-44
2023/08/06 00:33:53;;;;;;;3.83;3.53;;;22.10;66.00;;;;;;5054978;28;20239;-46
2023/08/06 00:36:18;;;;;;;3.00;2.80;;;22.10;65.90;;;;;;5053985;28;20280;-44
2023/08/06 00:38:44;;;;;;;4.30;3.90;;;22.00;66.10;;;;;;5053870;28;20640;-45
2023/08/06 00:41:10;;;;;;;6.33;3.20;;;22.20;65.30;;;;;;5049094;28;20193;-44
2023/08/06 00:43:35;;;;;;;3.60;2.93;;;22.10;65.70;;;;;;5052632;28;20283;-45
2023/08/06 00:46:01;;;;;;;3.80;3.50;;;21.70;66.70;;;;;;5052054;28;20196;-44
2023/08/06 00:48:27;;;;;;;3.17;2.87;;;21.50;68.10;;;;;;5044684;28;20204;-45
2023/08/06 00:50:53;;;;;;;5.60;2.97;;;21.70;67.80;;;;;;5052401;28;20530;-44
2023/08/06 00:53:19;;;;;;;4.53;3.30;;;21.70;67.00;;;;;;5050727;28;20192;-44
2023/08/06 00:55:45;;;;;;;3.50;3.20;;;21.80;67.20;;;;;;5052866;28;20189;-45
2023/08/06 00:58:12;;;;;;;5.60;3.20;;;21.70;67.20;;;;;;5052899;28;20196;-44
2023/08/06 01:00:38;;;;;;;3.30;3.00;;;21.40;68.50;;;;;;5049270;28;20458;-47
2023/08/06 01:03:03;;;;;;;3.83;3.37;;;21.50;68.20;;;;;;5053870;28;20511;-45
2023/08/06 01:05:29;;;;;;;5.83;3.63;;;21.50;68.30;;;;;;5049987;28;20501;-46
2023/08/06 01:08:40;;;;;;;3.07;2.77;;;21.70;67.90;;;;;;5045449;28;20188;-44
2023/08/06 01:11:23;;;;;;;3.90;3.40;;;21.90;67.30;;;;;;5050973;28;20446;-44
2023/08/06 01:14:04;;;;;;;3.70;3.40;;;22.00;66.20;;;;;;5050137;28;20501;-45
2023/08/06 01:16:31;;;;;;;4.17;3.80;;;22.10;66.10;;;;;;5050159;28;20471;-44
2023/08/06 01:18:58;;;;;;;4.50;4.10;;;22.00;65.90;;;;;;5053186;28;20461;-45
2023/08/06 01:21:23;;;;;;;6.10;3.67;;;22.00;66.10;;;;;;5048229;28;21015;-45
2023/08/06 01:23:49;;;;;;;4.90;4.40;;;22.10;65.80;;;;;;5050510;28;20438;-44
2023/08/06 01:26:24;;;;;;;5.20;3.53;;;21.80;66.50;;;;;;5048432;28;20188;-46
2023/08/06 01:29:02;;;;;;;4.13;3.57;;;21.80;66.80;;;;;;5049594;28;20204;-44
2023/08/06 01:31:33;;;;;;;4.10;3.70;;;21.70;67.20;;;;;;5051783;28;20545;-46
2023/08/06 01:34:02;;;;;;;4.03;3.57;;;21.70;66.90;;;;;;5051689;28;20558;-44
2023/08/06 01:36:30;;;;;;;4.60;3.20;;;21.70;67.10;;;;;;5048072;28;20439;-45
2023/08/06 01:38:57;;;;;;;4.10;3.70;;;21.60;67.70;;;;;;5052845;28;20457;-44
2023/08/06 01:41:22;;;;;;;5.00;4.10;;;21.40;68.50;;;;;;5047446;28;20478;-44
2023/08/06 01:43:48;;;;;;;4.17;3.77;;;21.30;68.80;;;;;;5048989;28;20962;-44
2023/08/06 01:46:13;;;;;;;5.50;4.70;;;21.30;68.90;;;;;;5049058;28;20184;-46
2023/08/06 01:48:39;;;;;;;3.90;3.60;;;21.50;68.60;;;;;;5049348;28;20184;-44
2023/08/06 01:51:08;;;;;;;8.23;4.70;;;21.60;68.20;;;;;;5051186;28;20193;-46
2023/08/06 01:53:34;;;;;;;4.67;4.10;;;21.70;67.20;;;;;;5049707;28;20222;-45
2023/08/06 01:55:59;;;;;;;4.53;4.23;;;21.90;66.70;;;;;;5045883;28;20477;-45
2023/08/06 01:58:25;;;;;;;5.80;3.60;;;21.90;65.90;;;;;;5048658;28;20280;-44
2023/08/06 02:00:51;;;;;;;4.60;4.20;;;21.90;64.80;;;;;;5048262;28;21412;-44
2023/08/06 02:03:16;;;;;;;3.67;3.37;;;21.80;65.40;;;;;;5052167;28;20224;-44
2023/08/06 02:05:42;;;;;;;4.40;4.10;;;21.80;65.50;;;;;;5049891;28;20285;-46
2023/08/06 02:08:07;;;;;;;3.47;3.23;;;21.80;65.30;;;;;;5048125;28;20196;-47
2023/08/06 02:10:33;;;;;;;4.60;3.57;;;21.90;65.20;;;;;;5048867;28;20733;-47
2023/08/06 02:12:59;;;;;;;4.33;3.97;;;22.10;64.50;;;;;;5047276;28;20250;-44
2023/08/06 02:15:24;;;;;;;3.80;3.50;;;22.10;63.70;;;;;;5044983;28;20190;-45
2023/08/06 02:17:50;;;;;;;3.73;3.43;;;22.00;63.60;;;;;;5048544;28;20192;-46
2023/08/06 02:20:16;;;;;;;4.20;3.90;;;21.90;64.00;;;;;;5049057;28;20608;-45
2023/08/06 02:22:41;;;;;;;3.43;3.23;;;22.00;64.10;;;;;;5050593;28;20224;-45
2023/08/06 02:25:07;;;;;;;4.43;3.40;;;21.90;64.40;;;;;;5049896;28;20201;-44
2023/08/06 02:27:33;;;;;;;4.27;3.87;;;21.70;64.70;;;;;;5047158;28;21231;-44
2023/08/06 02:29:58;;;;;;;7.10;4.10;;;21.60;64.90;;;;;;5046964;28;20248;-44
2023/08/06 02:32:24;;;;;;;4.23;3.87;;;21.70;65.00;;;;;;5051421;28;20192;-44
2023/08/06 02:34:50;;;;;;;3.87;3.57;;;21.50;64.10;;;;;;5049057;28;20571;-47
2023/08/06 02:37:15;;;;;;;3.57;3.37;;;21.30;65.50;;;;;;5048647;28;20212;-45
2023/08/06 02:39:41;;;;;;;5.37;3.90;;;21.10;66.90;;;;;;5048898;28;20610;-44
2023/08/06 02:42:07;;;;;;;3.90;3.60;;;21.20;66.30;;;;;;5049769;28;20228;-44
2023/08/06 02:44:33;;;;;;;3.40;3.10;;;21.50;65.40;;;;;;5046726;28;20653;-44
2023/08/06 02:46:59;;;;;;;3.70;3.40;;;21.40;63.70;;;;;;5039622;28;20470;-45
2023/08/06 02:49:25;;;;;;;3.07;2.87;;;21.40;64.00;;;;;;5046386;28;20431;-45
2023/08/06 02:51:50;;;;;;;6.30;3.10;;;21.60;63.70;;;;;;5048813;28;20814;-44
2023/08/06 02:54:16;;;;;;;2.60;2.40;;;21.60;63.00;;;;;;5045810;28;20212;-46
2023/08/06 02:56:48;;;;;;;2.53;2.33;;;21.40;61.70;;;;;;5046313;28;20203;-44
2023/08/06 02:59:13;;;;;;;2.80;2.60;;;21.50;62.50;;;;;;5048731;28;20271;-48
2023/08/06 03:01:39;;;;;;;3.20;2.90;;;21.50;62.70;;;;;;5049120;28;20554;-44
2023/08/06 03:04:06;;;;;;;3.37;3.00;;;21.40;61.70;;;;;;5049373;28;20227;-45
2023/08/06 03:06:31;;;;;;;2.67;2.47;;;21.40;61.50;;;;;;5048460;28;20192;-44
2023/08/06 03:08:57;;;;;;;4.80;2.93;;;21.50;61.40;;;;;;5050308;28;20446;-45
2023/08/06 03:11:22;;;;;;;3.73;3.13;;;21.60;62.00;;;;;;5047253;28;20203;-45
2023/08/06 03:13:48;;;;;;;2.50;2.33;;;21.30;61.80;;;;;;5048913;28;20231;-44
2023/08/06 03:16:14;;;;;;;4.77;3.10;;;21.30;62.10;;;;;;5047270;28;20199;-43
2023/08/06 03:18:40;;;;;;;4.43;3.20;;;21.30;60.90;;;;;;5046337;28;20526;-44
2023/08/06 03:21:06;;;;;;;3.70;2.37;;;21.40;60.80;;;;;;5049271;28;20282;-45
2023/08/06 03:23:31;;;;;;;3.00;2.80;;;21.50;60.40;;;;;;5042307;28;20853;-44
2023/08/06 03:26:04;;;;;;;2.50;2.30;;;21.60;60.10;;;;;;5049746;28;20196;-44
2023/08/06 03:28:29;;;;;;;2.80;2.20;;;21.70;59.50;;;;;;5050805;28;20185;-44
2023/08/06 03:31:02;;;;;;;2.80;2.60;;;21.60;59.50;;;;;;5049636;28;20445;-44
2023/08/06 03:33:27;;;;;;;2.50;2.40;;;21.20;59.80;;;;;;5050188;28;20236;-44
2023/08/06 03:35:53;;;;;;;5.33;2.27;;;20.80;61.10;;;;;;5049550;28;20431;-45
2023/08/06 03:38:18;;;;;;;2.37;1.97;;;20.70;61.70;;;;;;5050523;28;20275;-44
2023/08/06 03:40:44;;;;;;;2.70;2.50;;;20.70;61.80;;;;;;5049560;28;20201;-45
2023/08/06 03:43:09;;;;;;;2.47;2.27;;;20.70;61.80;;;;;;5049911;28;20216;-45
2023/08/06 03:45:35;;;;;;;2.40;2.20;;;20.90;61.00;;;;;;5049277;28;20189;-45
2023/08/06 03:48:01;;;;;;;3.30;2.40;;;20.90;61.00;;;;;;5046982;28;20818;-44
2023/08/06 03:50:26;;;;;;;3.47;2.50;;;21.00;60.00;;;;;;5050225;28;20295;-44
2023/08/06 03:52:52;;;;;;;2.30;2.10;;;21.10;60.30;;;;;;5051838;28;20192;-45
2023/08/06 03:55:17;;;;;;;2.40;1.90;;;21.10;59.80;;;;;;5046849;28;20254;-44
2023/08/06 03:57:43;;;;;;;2.70;2.33;;;21.30;60.10;;;;;;5047647;28;20219;-44
2023/08/06 04:00:09;;;;;;;2.10;1.90;;;21.40;59.70;;;;;;5050241;28;20185;-45
2023/08/06 04:02:34;;;;;;;2.43;2.23;;;21.30;59.10;;;;;;5040016;28;20221;-44
2023/08/06 04:05:01;;;;;;;2.10;2.00;;;21.30;59.40;;;;;;5050562;28;20454;-44
2023/08/06 04:07:26;;;;;;;4.17;2.70;;;21.20;60.40;;;;;;5047647;28;20191;-44
2023/08/06 04:09:59;;;;;;;2.40;2.20;;;21.20;60.00;;;;;;5046165;28;20435;-45
2023/08/06 04:12:25;;;;;;;2.63;2.43;;;21.30;60.40;;;;;;5042277;28;20224;-45
2023/08/06 04:14:52;;;;;;;2.00;1.73;;;21.30;60.20;;;;;;5042562;28;20438;-48
2023/08/06 04:17:20;;;;;;;2.20;2.10;;;21.40;60.20;;;;;;5043782;28;20895;-45
2023/08/06 04:19:50;;;;;;;2.40;2.20;;;21.40;59.80;;;;;;5042646;28;20531;-46
2023/08/06 04:22:16;;;;;;;3.00;2.70;;;21.40;60.00;;;;;;5041468;28;20478;-46
2023/08/06 04:24:43;;;;;;;5.40;2.87;;;21.50;60.00;;;;;;5045295;28;21067;-45
2023/08/06 04:27:09;;;;;;;2.33;2.13;;;21.50;59.90;;;;;;5047145;28;20185;-45
2023/08/06 04:29:35;;;;;;;2.60;2.50;;;21.50;60.20;;;;;;5055279;28;20415;-45
2023/08/06 04:32:00;;;;;;;2.30;2.10;;;21.60;59.90;;;;;;5050482;28;20446;-46
2023/08/06 04:34:26;;;;;;;2.50;2.17;;;21.60;59.60;;;;;;5048959;28;20238;-45
2023/08/06 04:36:51;;;;;;;3.60;2.50;;;21.60;59.80;;;;;;5054684;28;20298;-47
2023/08/06 04:39:17;;;;;;;2.20;2.07;;;21.60;60.60;;;;;;5051517;28;20647;-49
2023/08/06 04:41:43;;;;;;;3.20;2.30;;;21.60;60.00;;;;;;5052112;28;20228;-44
2023/08/06 04:44:08;;;;;;;2.20;2.00;;;21.60;59.90;;;;;;5047167;28;20193;-44
2023/08/06 04:46:34;;;;;;;2.63;2.43;;;21.60;59.90;;;;;;5050140;28;20199;-48
2023/08/06 04:48:59;;;;;;;3.77;2.30;;;21.60;60.20;;;;;;5049786;28;20188;-50
2023/08/06 04:51:25;;;;;;;2.60;2.20;;;21.60;60.50;;;;;;5043345;28;20291;-46
2023/08/06 04:53:50;;;;;;;2.57;2.10;;;21.60;60.20;;;;;;5048213;28;20193;-44
2023/08/06 04:56:16;;;;;;;2.43;2.00;;;21.70;60.00;;;;;;5052290;28;20283;-44
2023/08/06 04:58:42;;;;;;;2.20;2.00;;;21.70;60.20;;;;;;5051214;28;20601;-44
2023/08/06 05:01:07;;;;;;;3.67;2.40;;;21.70;60.10;;;;;;5052124;28;20227;-50
2023/08/06 05:03:33;;;;;;;4.00;2.40;;;21.80;60.40;;;;;;5048354;28;20672;-44
2023/08/06 05:05:58;;;;;;;2.70;2.50;;;21.70;60.40;;;;;;5044880;28;20307;-44
2023/08/06 05:08:24;;;;;;;2.60;2.40;;;21.60;60.30;;;;;;5052505;28;20193;-45
2023/08/06 05:10:50;;;;;;;2.43;2.23;;;21.50;60.70;;;;;;5053580;28;20188;-45
2023/08/06 05:13:15;;;;;;;2.53;2.10;;;21.60;60.80;;;;;;5054311;28;20188;-45
2023/08/06 05:15:42;;;;;;;2.40;2.00;;;21.60;60.70;;;;;;5052219;28;20193;-44
2023/08/06 05:18:08;;;;;;;3.43;2.33;;;21.60;60.80;;;;;;5050788;28;20192;-44
2023/08/06 05:20:41;;;;;;;2.00;1.90;;;21.70;61.10;;;;;;5051149;28;20550;-46
2023/08/06 05:23:07;;;;;;;3.57;2.53;;;21.80;61.30;;;;;;5045855;28;20909;-45
2023/08/06 05:25:35;;;;;;;6.93;2.30;;;21.80;61.30;;;;;;5049747;28;20447;-49
2023/08/06 05:28:01;;;;;;;3.40;2.07;;;21.90;60.80;;;;;;5053102;28;20196;-44
2023/08/06 05:30:27;;;;;;;2.60;1.83;;;22.00;60.70;;;;;;5049157;28;20830;-51
2023/08/06 05:32:53;;;;;;;3.27;2.47;;;22.10;60.50;;;;;;5047303;28;20443;-45
2023/08/06 05:35:18;;;;;;;3.07;2.30;;;22.10;60.40;;;;;;5040532;28;21042;-44
2023/08/06 05:37:44;;;;;;;2.50;2.23;;;22.10;60.40;;;;;;5038340;28;20196;-48
2023/08/06 05:40:10;;;;;;;3.13;1.97;;;22.10;60.60;;;;;;5043409;28;20189;-48
2023/08/06 05:42:35;;;;;;;2.33;1.93;;;22.00;60.50;;;;;;5046511;28;20270;-48
2023/08/06 05:45:01;;;;;;;2.23;1.70;;;22.00;60.90;;;;;;5050712;28;20660;-45
2023/08/06 05:47:26;;;;;;;2.50;1.73;;;21.90;61.10;;;;;;5044753;28;20192;-47
2023/08/06 05:49:52;;;;;;;1.67;1.57;;;21.80;61.40;;;;;;5051316;28;20197;-44
2023/08/06 05:52:17;;;;;;;2.33;1.83;;;21.70;61.70;;;;;;5042011;28;20237;-47
2023/08/06 05:54:43;;;;;;;2.80;1.57;;;21.70;61.80;;;;;;5047560;28;20811;-51
2023/08/06 05:57:09;;;;;;;3.23;1.80;;;21.60;61.80;;;;;;5046158;28;20196;-48
2023/08/06 05:59:34;;;;;;;3.17;1.83;;;21.40;61.60;;;;;;5046930;28;20251;-45
2023/08/06 06:02:00;;;;;;;2.43;1.53;;;21.30;62.20;;;;;;5049921;28;20231;-44
2023/08/06 06:04:25;;;;;;;2.27;2.07;;;21.40;62.40;;;;;;5044076;28;20624;-49
2023/08/06 06:06:51;;;;;;;1.40;1.30;;;21.40;62.50;;;;;;5049122;28;20211;-46
2023/08/06 06:09:16;;;;;;;4.47;1.87;;;21.30;62.20;;;;;;5046783;28;20656;-49
2023/08/06 06:11:42;;;;;;;3.57;1.30;;;21.20;62.00;;;;;;5048789;28;20193;-45
2023/08/06 06:14:08;;;;;;;1.70;1.33;;;21.30;62.20;;;;;;5052718;28;20276;-44
2023/08/06 06:16:34;;;;;;;2.30;1.80;;;21.40;62.70;;;;;;5051808;28;20193;-51
2023/08/06 06:19:00;;;;;;;2.10;1.20;;;21.40;62.70;;;;;;5052528;28;20193;-48
2023/08/06 06:21:25;;;;;;;1.83;1.40;;;21.40;62.70;;;;;;5051093;28;20532;-44
2023/08/06 06:23:51;;;;;;;1.50;1.40;;;21.40;62.70;;;;;;5050258;28;20558;-46
2023/08/06 06:26:18;;;;;;;1.20;1.10;;;21.20;63.00;;;;;;5052514;28;20583;-46
2023/08/06 06:28:43;;;;;;;1.33;1.23;;;20.90;62.70;;;;;;5049679;28;20683;-45
2023/08/06 06:31:09;;;;;;;1.80;0.80;;;20.60;64.00;;;;;;5045512;28;20451;-44
2023/08/06 06:33:35;;;;;;;1.20;0.73;;;20.30;64.30;;;;;;5048143;28;20259;-51
2023/08/06 06:36:03;;;;;;;2.37;1.03;;;20.10;65.70;;;;;;5046503;28;20291;-47
2023/08/06 06:38:29;;;;;;;1.57;1.20;;;19.80;68.30;;;;;;5045163;28;20192;-49
2023/08/06 06:40:55;;;;;;;1.90;1.00;;;19.80;69.30;;;;;;5039726;28;20859;-44
2023/08/06 06:43:21;;;;;;;1.00;0.90;;;20.10;68.70;;;;;;5047434;28;20221;-47
2023/08/06 06:45:47;;;;;;;0.80;0.80;;;20.20;67.90;;;;;;5042495;28;20448;-50
2023/08/06 06:48:12;;;;;;;5.77;1.03;;;20.40;67.50;;;;;;5048017;28;20450;-45
2023/08/06 06:50:39;;;;;;;1.57;0.83;;;20.40;66.60;;;;;;5050339;28;20193;-45
2023/08/06 06:53:05;;;;;;;1.53;1.13;;;20.20;67.00;;;;;;5052001;28;20603;-44
2023/08/06 06:55:30;;;;;;;1.53;0.90;;;20.30;67.20;;;;;;5047723;28;20471;-44
2023/08/06 06:57:56;;;;;;;1.43;1.07;;;20.30;66.80;;;;;;5048587;28;20439;-50
2023/08/06 07:00:21;;;;;;;1.13;0.97;;;20.20;66.70;;;;;;5036422;28;20207;-45
2023/08/06 07:02:47;;;;;;;1.23;0.93;;;20.30;66.90;;;;;;5040217;28;20220;-48
2023/08/06 07:05:13;;;;;;;1.93;1.10;;;20.10;66.80;;;;;;5045550;28;20219;-44
2023/08/06 07:07:38;;;;;;;0.80;0.80;;;20.10;66.10;;;;;;5037539;28;20219;-44
2023/08/06 07:10:04;;;;;;;1.43;0.93;;;19.70;66.30;;;;;;5042387;28;20188;-49
2023/08/06 07:12:30;;;;;;;0.90;0.80;;;19.60;68.20;;;;;;5043839;28;20218;-46
2023/08/06 07:14:56;;;;;;;1.97;0.80;;;19.40;67.30;;;;;;5047533;28;20443;-45
2023/08/06 07:17:21;;;;;;;1.10;1.00;;;19.30;68.30;;;;;;5037987;28;20216;-48
2023/08/06 07:19:47;;;;;;;1.13;0.70;;;19.40;69.30;;;;;;5045941;28;20208;-44
2023/08/06 07:22:12;;;;;;;1.40;1.00;;;19.50;68.50;;;;;;5038887;28;20232;-44
2023/08/06 07:24:38;;;;;;;1.27;0.90;;;19.30;68.90;;;;;;5046807;28;20199;-46
2023/08/06 07:27:04;;;;;;;1.67;0.90;;;19.40;69.40;;;;;;5047822;28;20204;-47
2023/08/06 07:29:29;;;;;;;1.27;0.77;;;19.20;69.30;;;;;;5048003;28;20200;-49
2023/08/06 07:31:55;;;;;;;2.20;0.87;;;19.30;70.70;;;;;;5044164;28;20934;-43
2023/08/06 07:34:22;;;;;;;0.93;0.90;;;19.20;70.20;;;;;;5048403;28;20233;-44
2023/08/06 07:36:47;;;;;;;1.10;1.00;;;19.30;71.10;;;;;;5045842;28;20243;-49
2023/08/06 07:39:13;;;;;;;1.17;0.90;;;19.10;70.50;;;;;;5046428;28;20475;-46
2023/08/06 07:41:39;;;;;;;2.27;0.80;;;19.00;73.20;;;;;;5045398;28;20218;-47
2023/08/06 07:44:04;;;;;;;2.13;0.90;;;18.90;72.90;;;;;;5046568;28;20193;-44
2023/08/06 07:46:30;;;;;;;1.13;1.03;;;19.00;73.30;;;;;;5047588;28;20196;-47
2023/08/06 07:48:55;;;;;;;2.77;1.00;;;19.10;72.30;;;;;;5045456;28;20204;-43
2023/08/06 07:51:21;;;;;;;0.70;0.70;;;19.00;72.10;;;;;;5046988;28;20281;-44
2023/08/06 07:53:47;;;;;;;0.80;0.70;;;18.90;71.50;;;;;;5038989;28;20193;-50
2023/08/06 07:56:13;;;;;;;0.97;0.70;;;18.80;72.60;;;;;;5047800;28;20185;-48
2023/08/06 07:58:38;;;;;;;1.00;0.70;;;18.90;73.20;;;;;;5046886;28;20229;-43
2023/08/06 08:01:05;;;;;;;1.00;0.70;;;19.00;72.60;;;;;;5046460;28;20500;-44
2023/08/06 08:03:31;;;;;;;0.80;0.80;;;19.00;72.50;;;;;;5051288;28;20232;-50
2023/08/06 08:06:00;;;;;;;0.90;0.70;;;19.00;73.70;;;;;;5049035;28;20453;-44
2023/08/06 08:08:25;;;;;;;2.00;0.80;;;18.90;73.10;;;;;;5051343;28;20279;-50
2023/08/06 08:10:51;;;;;;;0.77;0.77;;;18.80;73.50;;;;;;5052670;28;20576;-47
2023/08/06 08:13:16;;;;;;;0.70;0.67;;;18.70;73.70;;;;;;5053690;28;20200;-45
2023/08/06 08:15:42;;;;;;;1.63;0.60;;;18.70;73.60;;;;;;5048939;28;20204;-46
2023/08/06 08:18:08;;;;;;;0.80;0.60;;;18.70;73.40;;;;;;5050521;28;20192;-46
2023/08/06 08:20:35;;;;;;;1.27;0.70;;;18.90;74.20;;;;;;5047649;28;20679;-46
2023/08/06 08:23:00;;;;;;;0.60;0.50;;;18.90;73.00;;;;;;5045003;28;20228;-49
2023/08/06 08:25:26;;;;;;;2.30;0.67;;;18.90;73.40;;;;;;5044261;28;20439;-47
2023/08/06 08:27:53;;;;;;;0.60;0.53;;;19.10;72.50;;;;;;5048018;28;20220;-47
2023/08/06 08:30:18;;;;;;;0.67;0.60;;;19.30;72.00;;;;;;5047750;28;20458;-46
2023/08/06 08:32:44;;;;;;;0.60;0.50;;;19.30;72.20;;;;;;5050099;28;20446;-49
2023/08/06 08:35:12;;;;;;;3.00;0.77;;;19.50;72.30;;;;;;5044744;28;20320;-44
2023/08/06 08:37:38;;;;;;;0.50;0.50;;;19.60;71.30;;;;;;5053630;28;20664;-47
2023/08/06 08:40:05;;;;;;;0.50;0.40;;;19.70;68.50;;;;;;5052172;28;20847;-45
2023/08/06 08:42:31;;;;;;;0.50;0.50;;;19.50;68.10;;;;;;5046801;28;20526;-45
2023/08/06 08:44:57;;;;;;;0.50;0.50;;;19.30;68.60;;;;;;5054397;28;20497;-44
2023/08/06 08:47:24;;;;;;;0.60;0.50;;;19.50;70.10;;;;;;5054260;28;20197;-49
2023/08/06 08:49:54;;;;;;;0.53;0.47;;;19.60;68.70;;;;;;5050447;28;20528;-47
2023/08/06 08:52:21;;;;;;;0.60;0.53;;;19.50;68.50;;;;;;5043988;28;20427;-49
2023/08/06 08:54:51;;;;;;;0.70;0.50;;;19.50;68.80;;;;;;5054624;28;20423;-46
2023/08/06 08:57:17;;;;;;;0.87;0.50;;;19.60;67.50;;;;;;5054012;28;20439;-44
2023/08/06 08:59:42;;;;;;;0.57;0.40;;;19.40;69.00;;;;;;5054919;28;20423;-48
2023/08/06 09:02:11;;;;;;;1.73;0.50;;;19.40;68.60;;;;;;5045502;28;20246;-43
2023/08/06 09:04:37;;;;;;;0.50;0.50;;;19.40;68.80;;;;;;5054611;28;20193;-41
2023/08/06 09:07:05;;;;;;;0.50;0.50;;;19.30;69.50;;;;;;5053866;28;20423;-42
2023/08/06 09:09:36;;;;;;;0.50;0.50;;;19.30;68.60;;;;;;5054694;28;20910;-41
2023/08/06 09:12:12;;;;;;;1.10;0.50;;;19.40;70.50;;;;;;5050156;28;20482;-42
2023/08/06 09:14:37;;;;;;;0.50;0.50;;;19.50;70.40;;;;;;5053939;28;20438;-42
2023/08/06 09:17:04;;;;;;;0.60;0.50;;;19.50;71.60;;;;;;5052215;28;20419;-42
2023/08/06 09:19:30;;;;;;;0.80;0.70;;;19.50;70.60;;;;;;5054244;28;20193;-42
2023/08/06 09:21:56;;;;;;;0.90;0.60;;;19.30;70.50;;;;;;5047423;28;20897;-42
2023/08/06 09:24:22;;;;;;;1.23;0.60;;;19.40;71.70;;;;;;5052716;28;20660;-43
2023/08/06 09:26:48;;;;;;;0.50;0.50;;;19.50;72.30;;;;;;5053638;28;20434;-41
2023/08/06 09:29:14;;;;;;;1.87;0.50;;;19.50;70.40;;;;;;5052495;28;20193;-42
2023/08/06 09:31:46;;;;;;;0.60;0.60;;;19.40;70.70;;;;;;5039680;28;20591;-46
2023/08/06 09:34:18;;;;;;;0.53;0.40;;;19.50;70.70;;;;;;5038717;28;21011;-46
2023/08/06 09:36:50;;;;;;;0.50;0.50;;;19.40;71.00;;;;;;5043167;28;20493;-48
2023/08/06 09:39:21;;;;;;;0.80;0.50;;;19.30;71.70;;;;;;5048895;28;20443;-43
2023/08/06 09:41:50;;;;;;;1.67;0.47;;;19.40;71.90;;;;;;5038698;28;20597;-42
2023/08/06 09:44:18;;;;;;;0.70;0.40;;;19.50;72.70;;;;;;5043354;28;20447;-44
2023/08/06 09:46:59;;;;;;;0.87;0.50;;;19.60;72.60;;;;;;5042538;28;20443;-42
2023/08/06 09:49:27;;;;;;;0.87;0.57;;;19.60;70.00;;;;;;5049216;28;22606;-42
2023/08/06 09:51:55;;;;;;;1.37;0.50;;;19.70;69.80;;;;;;5041208;28;20458;-42
2023/08/06 09:54:26;;;;;;;0.60;0.60;;;19.50;69.50;;;;;;5047318;28;20454;-42
2023/08/06 09:56:52;;;;;;;1.27;0.50;;;19.20;70.70;;;;;;5043678;28;20443;-44
2023/08/06 09:59:19;;;;;;;0.47;0.40;;;19.40;70.90;;;;;;5041684;28;20458;-43
2023/08/06 10:01:45;;;;;;;0.70;0.50;;;19.60;71.60;;;;;;5044032;28;20212;-42
2023/08/06 10:04:15;;;;;;;0.40;0.40;;;19.70;71.00;;;;;;5051616;28;20435;-47
2023/08/06 10:06:42;;;;;;;1.27;0.50;;;19.80;70.20;;;;;;5052510;28;20435;-42
2023/08/06 10:09:09;;;;;;;0.80;0.60;;;19.70;71.80;;;;;;5052434;28;20435;-43
2023/08/06 10:11:36;;;;;;;2.20;0.60;;;19.70;72.10;;;;;;5046747;28;20479;-42
2023/08/06 10:14:31;;;;;;;0.50;0.43;;;19.80;72.90;;;;;;5052513;28;20427;-42
2023/08/06 10:16:59;;;;;;;1.17;0.63;;;19.90;71.70;;;;;;5041938;28;20459;-46
2023/08/06 10:19:26;;;;;;;0.50;0.50;;;20.10;72.20;;;;;;5050883;28;20439;-42
2023/08/06 10:22:15;;;;;;;2.03;0.60;;;20.20;72.50;;;;;;5049756;28;20523;-46
2023/08/06 10:24:47;;;;;;;0.83;0.50;;;20.40;71.80;;;;;;5041812;28;20431;-42
2023/08/06 10:27:13;;;;;;;0.60;0.43;;;20.10;71.70;;;;;;5046746;28;20448;-42
2023/08/06 10:29:38;;;;;;;0.50;0.50;;;20.00;71.50;;;;;;5050118;28;20447;-43
2023/08/06 10:32:05;;;;;;;1.70;0.60;;;20.00;70.80;;;;;;5050931;28;20200;-42
2023/08/06 10:34:56;;;;;;;2.43;0.60;;;19.90;70.20;;;;;;5044575;28;20289;-42
2023/08/06 10:37:23;;;;;;;0.50;0.50;;;19.70;71.40;;;;;;5051055;28;20447;-42
2023/08/06 10:39:52;;;;;;;0.50;0.50;;;19.70;73.60;;;;;;5046389;28;20876;-43
2023/08/06 10:42:28;;;;;;;0.50;0.50;;;19.80;74.40;;;;;;5044283;28;20545;-42
2023/08/06 10:45:16;;;;;;;1.30;0.53;;;19.70;73.30;;;;;;5052463;28;20494;-43
2023/08/06 10:47:43;;;;;;;0.60;0.50;;;19.80;73.90;;;;;;5042362;28;20500;-44
2023/08/06 10:50:13;;;;;;;1.17;0.50;;;20.00;73.50;;;;;;5052377;28;20435;-44
2023/08/06 10:52:39;;;;;;;0.60;0.50;;;20.00;72.20;;;;;;5047746;28;20438;-42
2023/08/06 10:55:05;;;;;;;0.60;0.60;;;20.10;71.70;;;;;;5044154;28;20887;-45
2023/08/06 10:57:31;;;;;;;0.60;0.60;;;20.10;70.70;;;;;;5049343;28;20795;-43
2023/08/06 10:59:56;;;;;;;1.13;0.80;;;19.90;71.20;;;;;;5052110;28;20431;-42
2023/08/06 11:02:22;;;;;;;0.83;0.50;;;20.10;71.90;;;;;;5047427;28;20216;-42
2023/08/06 11:04:49;;;;;;;0.73;0.60;;;20.00;69.80;;;;;;5048785;28;20197;-42
2023/08/06 11:07:14;;;;;;;1.47;0.50;;;19.80;69.00;;;;;;5050049;28;20476;-42
2023/08/06 11:09:40;;;;;;;0.70;0.53;;;19.50;70.00;;;;;;5045332;28;20435;-43
2023/08/06 11:12:12;;;;;;;1.17;0.70;;;19.30;71.90;;;;;;5048444;28;20195;-42
2023/08/06 11:14:38;;;;;;;0.60;0.60;;;19.40;72.40;;;;;;5049746;28;20258;-43
2023/08/06 11:17:05;;;;;;;0.93;0.70;;;19.60;72.60;;;;;;5049707;28;20454;-42
2023/08/06 11:19:31;;;;;;;0.80;0.60;;;19.70;75.00;;;;;;5050115;28;20784;-43
2023/08/06 11:21:56;;;;;;;0.80;0.70;;;19.40;72.10;;;;;;5051738;28;20494;-44
2023/08/06 11:24:24;;;;;;;1.30;0.83;;;19.10;73.10;;;;;;5043611;28;20204;-43
2023/08/06 11:26:49;;;;;;;0.80;0.63;;;18.80;72.70;;;;;;5049244;28;20196;-43
2023/08/06 11:29:16;;;;;;;0.60;0.60;;;19.10;74.40;;;;;;5048972;28;20453;-45
2023/08/06 11:31:41;;;;;;;0.80;0.73;;;19.20;72.70;;;;;;5051736;28;20197;-43
2023/08/06 11:34:07;;;;;;;0.73;0.73;;;19.20;71.80;;;;;;5046801;28;20471;-48
2023/08/06 11:36:34;;;;;;;0.60;0.60;;;18.80;70.90;;;;;;5050405;28;20276;-42
2023/08/06 11:39:00;;;;;;;1.20;1.10;;;18.50;72.40;;;;;;5050690;28;20211;-42
2023/08/06 11:41:28;;;;;;;2.40;0.80;;;18.40;73.30;;;;;;5050696;28;20799;-42
2023/08/06 11:43:54;;;;;;;0.93;0.80;;;18.60;72.00;;;;;;5053010;28;20456;-42
2023/08/06 11:46:19;;;;;;;0.90;0.90;;;18.50;71.20;;;;;;5051290;28;20922;-45
2023/08/06 11:48:52;;;;;;;1.53;0.80;;;18.80;71.80;;;;;;5052633;28;20197;-42
2023/08/06 11:51:18;;;;;;;1.10;1.00;;;18.90;71.20;;;;;;5045326;28;20193;-43
2023/08/06 11:53:49;;;;;;;1.03;1.00;;;18.80;68.70;;;;;;5053867;28;20492;-43
2023/08/06 11:56:15;;;;;;;1.23;1.13;;;18.40;69.40;;;;;;5042089;28;20526;-43
2023/08/06 11:58:42;;;;;;;1.20;1.10;;;18.30;70.40;;;;;;5053720;28;20434;-42
2023/08/06 12:01:07;;;;;;;1.40;1.17;;;18.20;71.50;;;;;;5052394;28;20197;-44
2023/08/06 12:03:38;;;;;;;1.27;1.17;;;18.10;72.20;;;;;;5048630;28;20831;-42
2023/08/06 12:06:04;;;;;;;1.93;1.10;;;18.20;72.50;;;;;;5051626;28;20585;-44
2023/08/06 12:08:29;;;;;;;1.17;1.07;;;18.20;73.70;;;;;;5052128;28;20444;-43
2023/08/06 12:10:55;;;;;;;1.20;1.10;;;18.20;73.60;;;;;;5043822;28;20699;-43
2023/08/06 12:13:21;;;;;;;1.30;1.20;;;18.30;73.60;;;;;;5051340;28;20219;-43
2023/08/06 12:15:46;;;;;;;1.47;1.37;;;18.30;73.90;;;;;;5051627;28;20224;-43
2023/08/06 12:18:12;;;;;;;1.37;1.27;;;18.40;74.50;;;;;;5044753;28;22606;-46
2023/08/06 12:20:38;;;;;;;1.40;1.30;;;18.40;74.40;;;;;;5050355;28;20201;-42
2023/08/06 12:23:04;;;;;;;1.77;1.30;;;18.30;74.20;;;;;;5051401;28;20228;-43
2023/08/06 12:25:29;;;;;;;1.50;1.40;;;18.10;74.00;;;;;;5048580;28;20453;-43
2023/08/06 12:27:55;;;;;;;1.83;1.53;;;17.80;75.00;;;;;;5050197;28;20652;-44
2023/08/06 12:30:21;;;;;;;1.77;1.40;;;17.80;76.50;;;;;;5041356;28;20184;-43
2023/08/06 12:32:46;;;;;;;1.87;1.70;;;17.80;76.30;;;;;;5045992;28;20197;-43
2023/08/06 12:35:13;;;;;;;4.03;1.87;;;18.00;75.20;;;;;;5053474;28;20695;-43
2023/08/06 12:37:39;;;;;;;2.60;1.70;;;17.90;75.80;;;;;;5051997;28;22026;-44
2023/08/06 12:40:05;;;;;;;1.67;1.57;;;18.20;76.10;;;;;;5053410;28;20435;-43
2023/08/06 12:42:31;;;;;;;1.57;1.40;;;18.10;74.30;;;;;;5052339;28;20252;-43
2023/08/06 12:44:56;;;;;;;2.07;1.87;;;18.10;74.50;;;;;;5047554;28;20533;-45
2023/08/06 12:47:22;;;;;;;1.50;1.40;;;18.10;73.40;;;;;;5049569;28;20674;-43